createdAt,value
2022-08-30T00:02:07.014Z,16.70
2022-08-30T00:04:35.348Z,16.70
2022-08-30T00:07:03.724Z,16.60
2022-08-30T00:09:32.411Z,16.60
2022-08-30T00:11:59.939Z,16.60
2022-08-30T00:14:27.473Z,16.60
2022-08-30T00:16:54.404Z,16.50
2022-08-30T00:19:21.305Z,16.50
2022-08-30T00:21:48.120Z,16.50
2022-08-30T00:24:14.882Z,16.40
2022-08-30T00:26:41.719Z,16.40
2022-08-30T00:29:08.635Z,16.40
2022-08-30T00:31:35.641Z,16.40
2022-08-30T00:34:02.517Z,16.40
2022-08-30T00:36:29.307Z,16.40
2022-08-30T00:38:56.088Z,16.30
2022-08-30T00:41:32.160Z,16.30
2022-08-30T00:44:00.699Z,16.30
2022-08-30T00:46:28.110Z,16.20
2022-08-30T00:48:56.560Z,16.20
2022-08-30T00:51:24.115Z,16.20
2022-08-30T00:53:54.945Z,16.20
2022-08-30T00:56:25.126Z,16.10
2022-08-30T00:58:55.347Z,16.10
2022-08-30T01:01:22.623Z,16.10
2022-08-30T01:03:50.416Z,16.10
2022-08-30T01:06:18.264Z,16.00
2022-08-30T01:08:47.157Z,16.00
2022-08-30T01:11:17.028Z,16.00
2022-08-30T01:13:47.041Z,16.00
2022-08-30T01:16:14.094Z,16.00
2022-08-30T01:18:41.462Z,15.90
2022-08-30T01:21:16.796Z,15.90
2022-08-30T01:23:45.915Z,15.90
2022-08-30T01:26:15.779Z,15.90
2022-08-30T01:28:46.174Z,15.90
2022-08-30T01:31:13.099Z,15.90
2022-08-30T01:33:40.183Z,15.90
2022-08-30T01:36:12.391Z,15.80
2022-08-30T01:38:47.622Z,15.80
2022-08-30T01:41:19.759Z,15.80
2022-08-30T01:43:47.999Z,15.80
2022-08-30T01:46:17.844Z,15.80
2022-08-30T01:48:53.061Z,15.70
2022-08-30T01:51:23.538Z,15.70
2022-08-30T01:53:50.922Z,15.60
2022-08-30T01:56:17.757Z,15.60
2022-08-30T01:58:44.781Z,15.50
2022-08-30T02:01:14.925Z,15.50
2022-08-30T02:03:43.479Z,15.50
2022-08-30T02:06:15.645Z,15.50
2022-08-30T02:08:43.039Z,15.40
2022-08-30T02:11:10.910Z,15.40
2022-08-30T02:13:38.559Z,15.30
2022-08-30T02:16:07.883Z,15.30
2022-08-30T02:18:35.452Z,15.30
2022-08-30T02:21:03.299Z,15.30
2022-08-30T02:23:31.093Z,15.30
2022-08-30T02:25:58.216Z,15.30
2022-08-30T02:28:26.329Z,15.30
2022-08-30T02:30:54.300Z,15.30
2022-08-30T02:33:21.289Z,15.20
2022-08-30T02:35:48.192Z,15.20
2022-08-30T02:38:15.283Z,15.20
2022-08-30T02:40:47.227Z,15.10
2022-08-30T02:43:14.659Z,15.10
2022-08-30T02:45:41.721Z,15.10
2022-08-30T02:48:08.763Z,15.10
2022-08-30T02:50:40.547Z,15.10
2022-08-30T02:53:07.355Z,15.10
2022-08-30T02:55:36.331Z,15.10
2022-08-30T02:58:03.444Z,15.10
2022-08-30T03:00:30.387Z,15.00
2022-08-30T03:02:57.342Z,15.00
2022-08-30T03:05:24.606Z,14.90
2022-08-30T03:07:51.701Z,14.90
2022-08-30T03:10:18.777Z,14.90
2022-08-30T03:12:47.773Z,14.90
2022-08-30T03:15:16.016Z,14.90
2022-08-30T03:17:43.062Z,14.80
2022-08-30T03:20:11.891Z,14.80
2022-08-30T03:22:39.318Z,14.80
2022-08-30T03:25:06.973Z,14.80
2022-08-30T03:27:33.761Z,14.80
2022-08-30T03:30:00.577Z,14.80
2022-08-30T03:32:28.318Z,14.70
2022-08-30T03:34:55.524Z,14.80
2022-08-30T03:37:26.873Z,14.80
2022-08-30T03:39:55.575Z,14.80
2022-08-30T03:42:23.167Z,14.80
2022-08-30T03:44:51.868Z,14.80
2022-08-30T03:47:18.901Z,14.80
2022-08-30T03:49:45.643Z,14.80
2022-08-30T03:52:12.422Z,14.80
2022-08-30T03:54:40.128Z,14.80
2022-08-30T03:57:07.377Z,14.80
2022-08-30T03:59:34.160Z,14.70
2022-08-30T04:02:01.004Z,14.70
2022-08-30T04:04:27.865Z,14.70
2022-08-30T04:06:55.344Z,14.60
2022-08-30T04:09:23.535Z,14.60
2022-08-30T04:11:50.831Z,14.60
2022-08-30T04:14:18.054Z,14.60
2022-08-30T04:16:45.626Z,14.50
2022-08-30T04:19:12.436Z,14.50
2022-08-30T04:21:42.904Z,14.50
2022-08-30T04:24:10.955Z,14.50
2022-08-30T04:26:37.750Z,14.40
2022-08-30T04:29:04.471Z,14.50
2022-08-30T04:31:31.529Z,14.50
2022-08-30T04:33:58.499Z,14.50
2022-08-30T04:36:25.165Z,14.50
2022-08-30T04:38:52.010Z,14.40
2022-08-30T04:41:19.346Z,14.50
2022-08-30T04:43:50.401Z,14.50
2022-08-30T04:46:18.913Z,14.40
2022-08-30T04:48:46.646Z,14.40
2022-08-30T04:51:15.935Z,14.40
2022-08-30T04:53:44.275Z,14.40
2022-08-30T04:56:22.455Z,14.40
2022-08-30T04:58:51.071Z,14.40
2022-08-30T05:01:23.956Z,14.40
2022-08-30T05:03:52.128Z,14.40
2022-08-30T05:06:19.498Z,14.40
2022-08-30T05:08:46.734Z,14.40
2022-08-30T05:11:13.929Z,14.50
2022-08-30T05:13:40.802Z,14.50
2022-08-30T05:16:08.149Z,14.60
2022-08-30T05:18:36.578Z,14.70
2022-08-30T05:21:25.463Z,14.80
2022-08-30T05:23:56.003Z,14.90
2022-08-30T05:26:34.769Z,15.00
2022-08-30T05:29:01.986Z,15.00
2022-08-30T05:31:32.094Z,15.10
2022-08-30T05:34:00.366Z,15.20
2022-08-30T05:36:29.817Z,15.40
2022-08-30T05:38:57.101Z,15.50
2022-08-30T05:41:26.718Z,15.60
2022-08-30T05:43:56.270Z,15.70
2022-08-30T05:46:23.487Z,15.80
2022-08-30T05:48:50.630Z,15.90
2022-08-30T05:51:23.507Z,16.00
2022-08-30T05:53:52.783Z,16.20
2022-08-30T05:56:24.753Z,16.30
2022-08-30T05:58:52.542Z,16.40
2022-08-30T06:01:27.514Z,16.60
2022-08-30T06:04:00.372Z,16.60
2022-08-30T06:06:33.201Z,16.80
2022-08-30T06:08:59.992Z,16.80
2022-08-30T06:11:27.008Z,16.90
2022-08-30T06:13:55.017Z,17.00
2022-08-30T06:16:24.974Z,17.10
2022-08-30T06:18:52.670Z,17.20
2022-08-30T06:21:22.093Z,17.40
2022-08-30T06:23:49.362Z,17.50
2022-08-30T06:26:17.128Z,17.60
2022-08-30T06:28:44.300Z,17.70
2022-08-30T06:31:13.928Z,17.80
2022-08-30T06:33:41.255Z,17.90
2022-08-30T06:36:11.633Z,17.90
2022-08-30T06:38:40.014Z,18.10
2022-08-30T06:41:12.526Z,18.20
2022-08-30T06:43:39.385Z,18.40
2022-08-30T06:46:09.374Z,18.60
2022-08-30T06:48:36.201Z,18.70
2022-08-30T06:51:03.511Z,18.80
2022-08-30T06:53:30.944Z,18.90
2022-08-30T06:56:04.578Z,19.00
2022-08-30T06:58:32.297Z,19.10
2022-08-30T07:00:59.311Z,19.30
2022-08-30T07:03:28.882Z,19.50
2022-08-30T07:05:57.542Z,19.60
2022-08-30T07:08:25.436Z,19.70
2022-08-30T07:10:56.075Z,19.80
2022-08-30T07:13:24.072Z,20.10
2022-08-30T07:15:52.098Z,20.30
2022-08-30T07:18:48.293Z,20.50
2022-08-30T07:21:18.872Z,20.50
2022-08-30T07:23:53.091Z,20.70
2022-08-30T07:26:24.720Z,20.80
2022-08-30T07:28:55.880Z,20.90
2022-08-30T07:31:24.092Z,21.00
2022-08-30T07:33:51.183Z,21.10
2022-08-30T07:36:18.854Z,21.30
2022-08-30T07:38:46.672Z,21.40
2022-08-30T07:41:24.628Z,21.60
2022-08-30T07:43:51.657Z,21.90
2022-08-30T07:46:18.693Z,21.90
2022-08-30T07:48:46.048Z,22.10
2022-08-30T07:51:17.313Z,22.30
2022-08-30T07:53:44.439Z,22.40
2022-08-30T07:56:11.308Z,22.40
2022-08-30T07:58:40.825Z,22.60
2022-08-30T08:01:09.715Z,22.70
2022-08-30T08:03:38.153Z,22.80
2022-08-30T08:06:06.344Z,22.80
2022-08-30T08:08:33.841Z,22.90
2022-08-30T08:11:10.354Z,23.10
2022-08-30T08:13:47.261Z,23.30
2022-08-30T08:16:28.970Z,23.50
2022-08-30T08:18:55.980Z,23.80
2022-08-30T08:21:25.112Z,23.80
2022-08-30T08:23:52.276Z,24.00
2022-08-30T08:26:19.550Z,24.30
2022-08-30T08:28:47.179Z,24.50
2022-08-30T08:31:20.348Z,25.00
2022-08-30T08:33:47.669Z,25.50
2022-08-30T08:36:14.817Z,26.20
2022-08-30T08:38:42.332Z,26.60
2022-08-30T08:41:28.816Z,26.80
2022-08-30T08:43:55.946Z,27.10
2022-08-30T08:46:55.898Z,27.00
2022-08-30T08:49:23.505Z,27.10
2022-08-30T08:52:09.158Z,27.40
2022-08-30T08:54:56.165Z,27.50
2022-08-30T08:57:26.623Z,27.60
2022-08-30T08:59:54.615Z,27.80
2022-08-30T09:02:28.567Z,28.10
2022-08-30T09:05:00.519Z,28.60
2022-08-30T09:07:32.112Z,29.10
2022-08-30T09:10:00.718Z,29.20
2022-08-30T09:12:28.130Z,29.10
2022-08-30T09:15:01.578Z,29.20
2022-08-30T09:17:29.731Z,29.30
2022-08-30T09:19:56.542Z,29.30
2022-08-30T09:22:28.791Z,29.10
2022-08-30T09:25:04.820Z,29.00
2022-08-30T09:27:40.932Z,29.10
2022-08-30T09:30:37.467Z,29.20
2022-08-30T09:33:07.697Z,29.50
2022-08-30T09:35:49.456Z,29.50
2022-08-30T09:38:35.773Z,29.40
2022-08-30T09:41:27.385Z,29.90
2022-08-30T09:44:25.132Z,30.60
2022-08-30T09:46:53.489Z,31.00
2022-08-30T09:49:43.237Z,31.80
2022-08-30T09:52:12.981Z,32.10
2022-08-30T09:54:54.953Z,32.30
2022-08-30T09:57:45.932Z,32.80
2022-08-30T10:00:24.399Z,32.80
2022-08-30T10:03:35.199Z,33.00
2022-08-30T10:06:24.747Z,33.30
2022-08-30T10:09:10.057Z,33.60
2022-08-30T10:11:45.289Z,33.50
2022-08-30T10:14:46.418Z,33.70
2022-08-30T10:17:27.866Z,33.30
2022-08-30T10:20:18.842Z,33.90
2022-08-30T10:22:57.635Z,34.90
2022-08-30T10:25:37.979Z,35.30
2022-08-30T10:28:16.427Z,34.90
2022-08-30T10:31:00.302Z,35.20
2022-08-30T10:33:37.786Z,36.00
2022-08-30T10:36:13.659Z,37.00
2022-08-30T10:38:46.160Z,37.10
2022-08-30T10:41:35.647Z,37.30
2022-08-30T10:44:13.223Z,36.80
2022-08-30T10:47:09.968Z,36.70
2022-08-30T10:49:45.566Z,36.90
2022-08-30T10:52:31.815Z,37.50
2022-08-30T10:55:00.715Z,37.40
2022-08-30T10:57:27.569Z,38.00
2022-08-30T11:00:00.775Z,37.60
2022-08-30T11:03:01.327Z,37.20
2022-08-30T11:05:46.657Z,37.10
2022-08-30T11:08:27.259Z,37.80
2022-08-30T11:11:04.969Z,37.90
2022-08-30T11:13:35.560Z,37.70
2022-08-30T11:16:07.330Z,37.80
2022-08-30T11:19:26.624Z,38.30
2022-08-30T11:22:15.748Z,38.00
2022-08-30T11:25:14.156Z,39.20
2022-08-30T11:27:58.810Z,40.00
2022-08-30T11:30:26.933Z,40.50
2022-08-30T11:33:31.957Z,40.70
2022-08-30T11:35:59.334Z,40.20
2022-08-30T11:38:29.265Z,40.30
2022-08-30T11:40:56.200Z,40.90
2022-08-30T11:43:36.835Z,41.10
2022-08-30T11:46:24.449Z,40.80
2022-08-30T11:49:15.777Z,41.20
2022-08-30T11:52:27.456Z,41.50
2022-08-30T11:55:20.022Z,42.10
2022-08-30T11:57:57.971Z,41.20
2022-08-30T12:00:35.573Z,41.00
2022-08-30T12:03:07.798Z,40.40
2022-08-30T12:05:40.983Z,39.90
2022-08-30T12:08:10.896Z,39.90
2022-08-30T12:10:41.792Z,40.60
2022-08-30T12:13:10.635Z,41.30
2022-08-30T12:15:58.467Z,41.10
2022-08-30T12:18:29.758Z,40.90
2022-08-30T12:21:01.402Z,41.10
2022-08-30T12:23:48.402Z,41.00
2022-08-30T12:26:37.904Z,40.80
2022-08-30T12:29:26.529Z,40.40
2022-08-30T12:31:53.347Z,40.40
2022-08-30T12:34:32.032Z,41.10
2022-08-30T12:37:02.881Z,41.50
2022-08-30T12:39:37.302Z,41.20
2022-08-30T12:42:27.038Z,41.30
2022-08-30T12:44:58.619Z,42.00
2022-08-30T12:47:29.473Z,43.20
2022-08-30T12:49:57.679Z,43.80
2022-08-30T12:52:34.334Z,43.80
2022-08-30T12:55:17.717Z,44.20
2022-08-30T12:58:09.368Z,43.50
2022-08-30T13:01:01.924Z,43.30
2022-08-30T13:03:39.211Z,43.30
2022-08-30T13:06:07.814Z,43.40
2022-08-30T13:08:51.703Z,43.40
2022-08-30T13:11:21.498Z,44.10
2022-08-30T13:13:52.022Z,44.80
2022-08-30T13:16:22.888Z,45.60
2022-08-30T13:18:56.338Z,44.90
2022-08-30T13:21:23.016Z,44.90
2022-08-30T13:24:09.130Z,44.80
2022-08-30T13:26:38.213Z,45.50
2022-08-30T13:29:16.295Z,45.20
2022-08-30T13:31:43.953Z,44.10
2022-08-30T13:34:10.926Z,43.40
2022-08-30T13:36:44.802Z,42.80
2022-08-30T13:39:12.312Z,43.10
2022-08-30T13:41:39.990Z,43.40
2022-08-30T13:44:14.254Z,43.50
2022-08-30T13:49:51.398Z,42.90
2022-08-30T13:52:24.619Z,41.80
2022-08-30T13:54:55.327Z,41.40
2022-08-30T14:00:17.611Z,43.30
2022-08-30T14:02:50.352Z,43.80
2022-08-30T14:05:48.958Z,43.40
2022-08-30T14:11:01.342Z,44.10
2022-08-30T14:13:30.887Z,43.80
2022-08-30T14:18:47.012Z,42.70
2022-08-30T14:21:13.924Z,42.10
2022-08-30T14:23:40.715Z,42.40
2022-08-30T14:26:19.651Z,43.00
2022-08-30T14:28:52.059Z,42.90
2022-08-30T14:31:22.473Z,42.70
2022-08-30T14:33:49.518Z,42.10
2022-08-30T14:36:17.361Z,41.00
2022-08-30T14:38:45.765Z,39.10
2022-08-30T14:41:13.193Z,37.30
2022-08-30T14:43:40.605Z,37.00
2022-08-30T14:46:08.499Z,37.70
2022-08-30T14:48:37.121Z,39.10
2022-08-30T14:51:20.638Z,40.30
2022-08-30T14:53:51.015Z,40.60
2022-08-30T14:56:20.343Z,40.70
2022-08-30T14:58:51.520Z,41.00
2022-08-30T15:01:19.888Z,41.50
2022-08-30T15:03:47.034Z,41.60
2022-08-30T15:06:14.066Z,42.40
2022-08-30T15:08:41.230Z,42.50
2022-08-30T15:11:10.520Z,42.60
2022-08-30T15:13:38.018Z,42.50
2022-08-30T15:16:12.100Z,42.00
2022-08-30T15:18:39.739Z,41.40
2022-08-30T15:21:08.994Z,39.90
2022-08-30T15:23:37.237Z,39.50
2022-08-30T15:26:08.126Z,38.00
2022-08-30T15:28:36.201Z,36.80
2022-08-30T15:31:08.323Z,36.70
2022-08-30T15:33:36.021Z,37.30
2022-08-30T15:36:04.944Z,38.90
2022-08-30T15:38:32.559Z,40.10
2022-08-30T15:41:05.881Z,40.70
2022-08-30T15:43:33.848Z,40.80
2022-08-30T15:46:31.870Z,40.60
2022-08-30T15:49:02.929Z,40.50
2022-08-30T15:51:38.818Z,40.30
2022-08-30T15:54:20.400Z,40.10
2022-08-30T15:56:47.412Z,39.80
2022-08-30T15:59:18.775Z,39.20
2022-08-30T16:01:47.652Z,38.90
2022-08-30T16:04:18.507Z,38.60
2022-08-30T16:06:46.683Z,38.40
2022-08-30T16:09:14.011Z,37.40
2022-08-30T16:11:41.780Z,36.40
2022-08-30T16:14:09.523Z,35.80
2022-08-30T16:16:39.900Z,34.90
2022-08-30T16:19:08.457Z,34.10
2022-08-30T16:21:37.034Z,33.40
2022-08-30T16:24:06.648Z,32.90
2022-08-30T16:26:35.215Z,32.90
2022-08-30T16:29:03.266Z,32.80
2022-08-30T16:31:31.372Z,32.70
2022-08-30T16:34:02.587Z,33.10
2022-08-30T16:36:32.273Z,33.70
2022-08-30T16:38:59.488Z,34.40
2022-08-30T16:41:26.659Z,35.00
2022-08-30T16:43:54.243Z,35.20
2022-08-30T16:46:27.895Z,35.50
2022-08-30T16:48:57.674Z,35.00
2022-08-30T16:51:27.703Z,33.90
2022-08-30T16:53:56.122Z,33.40
2022-08-30T16:56:26.753Z,32.80
2022-08-30T16:59:01.204Z,32.10
2022-08-30T17:01:29.168Z,31.70
2022-08-30T17:03:56.183Z,31.60
2022-08-30T17:06:23.018Z,31.20
2022-08-30T17:08:54.102Z,31.10
2022-08-30T17:11:24.410Z,30.80
2022-08-30T17:13:52.100Z,30.50
2022-08-30T17:16:22.710Z,30.30
2022-08-30T17:18:55.215Z,30.20
2022-08-30T17:21:22.007Z,30.00
2022-08-30T17:23:51.214Z,29.80
2022-08-30T17:26:18.833Z,29.60
2022-08-30T17:28:46.081Z,29.50
2022-08-30T17:31:13.034Z,29.20
2022-08-30T17:33:45.426Z,29.10
2022-08-30T17:36:12.887Z,29.00
2022-08-30T17:38:40.114Z,28.80
2022-08-30T17:41:12.547Z,28.60
2022-08-30T17:43:40.075Z,28.40
2022-08-30T17:46:13.378Z,28.30
2022-08-30T17:48:40.908Z,28.20
2022-08-30T17:51:08.173Z,28.00
2022-08-30T17:53:36.983Z,27.90
2022-08-30T17:56:05.229Z,27.80
2022-08-30T17:58:32.455Z,27.70
2022-08-30T18:01:12.275Z,27.60
2022-08-30T18:03:39.751Z,27.50
2022-08-30T18:06:07.194Z,27.40
2022-08-30T18:08:35.442Z,27.30
2022-08-30T18:11:05.934Z,27.20
2022-08-30T18:13:33.590Z,27.10
2022-08-30T18:16:03.312Z,27.00
2022-08-30T18:18:30.762Z,26.90
2022-08-30T18:20:59.921Z,26.80
2022-08-30T18:23:27.263Z,26.70
2022-08-30T18:26:02.397Z,26.70
2022-08-30T18:28:29.448Z,26.60
2022-08-30T18:30:57.085Z,26.50
2022-08-30T18:33:25.689Z,26.40
2022-08-30T18:35:53.509Z,26.40
2022-08-30T18:38:23.590Z,26.30
2022-08-30T18:40:52.336Z,26.20
2022-08-30T18:43:22.935Z,26.10
2022-08-30T18:45:52.316Z,26.10
2022-08-30T18:48:20.116Z,26.00
2022-08-30T18:50:47.748Z,25.90
2022-08-30T18:53:15.828Z,25.80
2022-08-30T18:55:58.616Z,25.70
2022-08-30T18:58:25.682Z,25.60
2022-08-30T19:00:54.040Z,25.50
2022-08-30T19:03:23.544Z,25.50
2022-08-30T19:05:50.899Z,25.40
2022-08-30T19:08:17.898Z,25.40
2022-08-30T19:10:53.404Z,25.20
2022-08-30T19:13:20.537Z,25.20
2022-08-30T19:15:47.759Z,25.20
2022-08-30T19:18:17.443Z,25.10
2022-08-30T19:20:46.216Z,25.00
2022-08-30T19:23:14.453Z,25.00
2022-08-30T19:25:42.330Z,24.90
2022-08-30T19:28:10.315Z,24.90
2022-08-30T19:30:37.920Z,24.90
2022-08-30T19:33:05.823Z,24.70
2022-08-30T19:35:33.460Z,24.70
2022-08-30T19:38:00.510Z,24.70
2022-08-30T19:40:28.083Z,24.70
2022-08-30T19:42:55.093Z,24.60
2022-08-30T19:45:22.992Z,24.50
2022-08-30T19:47:50.899Z,24.40
2022-08-30T19:50:18.284Z,24.40
2022-08-30T19:52:51.016Z,24.30
2022-08-30T19:55:23.836Z,24.30
2022-08-30T19:57:56.386Z,24.20
2022-08-30T20:00:23.547Z,24.20
2022-08-30T20:02:51.142Z,24.10
2022-08-30T20:05:19.228Z,24.10
2022-08-30T20:07:51.182Z,24.00
2022-08-30T20:10:20.807Z,23.90
2022-08-30T20:12:52.895Z,23.90
2022-08-30T20:15:19.958Z,23.90
2022-08-30T20:18:05.176Z,23.80
2022-08-30T20:20:49.460Z,23.80
2022-08-30T20:23:21.448Z,23.70
2022-08-30T20:25:52.213Z,23.60
2022-08-30T20:28:20.964Z,23.60
2022-08-30T20:30:48.632Z,23.50
2022-08-30T20:33:17.071Z,23.50
2022-08-30T20:35:49.060Z,23.40
2022-08-30T20:38:26.696Z,23.40
2022-08-30T20:40:56.668Z,23.40
2022-08-30T20:43:27.180Z,23.30
2022-08-30T20:45:55.351Z,23.30
2022-08-30T20:48:23.640Z,23.30
2022-08-30T20:50:50.481Z,23.30
2022-08-30T20:53:17.350Z,23.20
2022-08-30T20:55:46.830Z,23.20
2022-08-30T20:58:14.466Z,23.20
2022-08-30T21:00:45.875Z,23.10
2022-08-30T21:03:26.226Z,23.10
2022-08-30T21:05:55.697Z,23.10
2022-08-30T21:08:22.748Z,23.00
2022-08-30T21:10:49.940Z,23.00
2022-08-30T21:13:17.176Z,23.00
2022-08-30T21:15:47.373Z,23.00
2022-08-30T21:18:14.971Z,22.90
2022-08-30T21:20:42.396Z,22.90
2022-08-30T21:23:10.839Z,22.80
2022-08-30T21:25:39.183Z,22.80
2022-08-30T21:28:07.007Z,22.80
2022-08-30T21:30:34.960Z,22.80
2022-08-30T21:33:07.778Z,22.70
2022-08-30T21:35:55.297Z,22.70
2022-08-30T21:38:25.412Z,22.70
2022-08-30T21:40:58.029Z,22.60
2022-08-30T21:43:25.130Z,22.60
2022-08-30T21:45:53.608Z,22.50
2022-08-30T21:48:20.862Z,22.50
2022-08-30T21:50:47.735Z,22.40
2022-08-30T21:53:15.328Z,22.40
2022-08-30T21:55:43.955Z,22.30
2022-08-30T21:58:11.291Z,22.20
2022-08-30T22:00:38.113Z,22.20
2022-08-30T22:03:05.045Z,22.20
2022-08-30T22:05:31.913Z,22.20
2022-08-30T22:07:58.731Z,22.20
2022-08-30T22:10:27.396Z,22.10
2022-08-30T22:12:56.837Z,22.10
2022-08-30T22:15:24.416Z,22.00
2022-08-30T22:17:53.912Z,21.90
2022-08-30T22:20:20.678Z,21.90
2022-08-30T22:22:47.623Z,21.80
2022-08-30T22:25:14.407Z,21.80
2022-08-30T22:27:41.218Z,21.70
2022-08-30T22:30:08.659Z,21.70
2022-08-30T22:32:38.137Z,21.70
2022-08-30T22:35:05.715Z,21.70
2022-08-30T22:37:33.952Z,21.60
2022-08-30T22:40:00.874Z,21.60
2022-08-30T22:42:27.762Z,21.50
2022-08-30T22:44:54.528Z,21.50
2022-08-30T22:47:21.427Z,21.50
2022-08-30T22:49:48.232Z,21.40
2022-08-30T22:52:15.134Z,21.40
2022-08-30T22:54:41.900Z,21.40
2022-08-30T22:57:09.295Z,21.40
2022-08-30T22:59:36.133Z,21.40
2022-08-30T23:02:03.208Z,21.40
2022-08-30T23:04:30.439Z,21.40
2022-08-30T23:06:57.324Z,21.40
2022-08-30T23:09:24.157Z,21.40
2022-08-30T23:11:51.085Z,21.40
2022-08-30T23:14:17.930Z,21.40
2022-08-30T23:16:45.067Z,21.40
2022-08-30T23:19:12.085Z,21.40
2022-08-30T23:21:38.888Z,21.40
2022-08-30T23:24:24.437Z,21.40
2022-08-30T23:27:09.860Z,21.40
2022-08-30T23:29:59.273Z,21.30
2022-08-30T23:32:44.689Z,21.30
2022-08-30T23:35:31.558Z,21.30
2022-08-30T23:38:18.537Z,21.40
2022-08-30T23:41:04.108Z,21.30
2022-08-30T23:43:49.532Z,21.30
2022-08-30T23:46:35.825Z,21.30
2022-08-30T23:49:21.936Z,21.30
2022-08-30T23:52:07.266Z,21.30
2022-08-30T23:54:54.903Z,21.30
2022-08-30T23:57:43.548Z,21.30
